Time;durP1;ratioP1;P1;durP2;ratioP2;P2;SDS_P1;SDS_P2;PMS_P1;PMS_P2;Temp;Humidity;BMP_temperature;BMP_pressure;BME280_temperature;BME280_humidity;BME280_pressure;Samples;Min_cycle;Max_cycle;Signal;HPM_P1;HPM_P2
2022/09/12 00:02:17;;;;;;;12.77;9.20;;;17.10;99.90;;;;;;5118996;28;20099;-71
2022/09/12 00:04:43;;;;;;;9.90;8.70;;;17.10;99.90;;;;;;5119049;28;20429;-71
2022/09/12 00:07:08;;;;;;;10.07;8.93;;;17.00;99.90;;;;;;5119025;28;20032;-71
2022/09/12 00:09:34;;;;;;;10.07;9.00;;;16.90;99.90;;;;;;5119819;28;20420;-71
2022/09/12 00:12:00;;;;;;;10.55;9.38;;;16.90;99.90;;;;;;5120195;28;20058;-71
2022/09/12 00:14:25;;;;;;;10.13;8.93;;;16.90;99.90;;;;;;5118938;28;20112;-71
2022/09/12 00:16:51;;;;;;;12.27;8.32;;;16.90;99.90;;;;;;5119660;28;20050;-71
2022/09/12 00:19:17;;;;;;;12.20;8.90;;;16.90;99.90;;;;;;5120029;28;20075;-71
2022/09/12 00:21:43;;;;;;;12.27;9.07;;;16.90;99.90;;;;;;5119726;28;20043;-71
2022/09/12 00:24:09;;;;;;;9.85;8.70;;;16.80;99.90;;;;;;5119522;28;20043;-71
2022/09/12 00:26:36;;;;;;;10.88;9.75;;;16.80;99.90;;;;;;5119767;28;20042;-71
2022/09/12 00:29:01;;;;;;;9.25;8.35;;;16.70;99.90;;;;;;5118597;28;20075;-70
2022/09/12 00:31:27;;;;;;;9.00;8.07;;;16.70;99.90;;;;;;5101301;28;20086;-71
2022/09/12 00:33:56;;;;;;;10.25;9.15;;;16.70;99.90;;;;;;5119713;28;20139;-71
2022/09/12 00:36:24;;;;;;;11.27;8.60;;;16.70;99.90;;;;;;5119428;28;20442;-71
2022/09/12 00:38:49;;;;;;;11.18;9.95;;;16.70;99.90;;;;;;5119469;28;20039;-71
2022/09/12 00:41:31;;;;;;;13.43;10.23;;;16.60;99.90;;;;;;5152574;27;20059;-71
2022/09/12 00:44:21;;;;;;;11.27;10.05;;;16.70;99.90;;;;;;5119433;28;20126;-71
2022/09/12 00:47:01;;;;;;;14.90;10.25;;;16.60;99.90;;;;;;5119321;28;20035;-71
2022/09/12 00:49:30;;;;;;;11.98;10.07;;;16.60;99.90;;;;;;5118068;28;20069;-71
2022/09/12 00:52:05;;;;;;;15.88;10.30;;;16.60;99.90;;;;;;5119258;28;20035;-70
2022/09/12 00:54:36;;;;;;;13.32;10.10;;;16.70;99.90;;;;;;5117874;28;20428;-71
2022/09/12 00:57:05;;;;;;;11.63;9.88;;;16.60;99.90;;;;;;5117844;28;20321;-71
2022/09/12 00:59:36;;;;;;;13.18;10.15;;;16.60;99.90;;;;;;5119203;28;20047;-71
2022/09/12 01:02:02;;;;;;;14.90;11.82;;;16.60;99.90;;;;;;5117415;28;20092;-71
2022/09/12 01:04:29;;;;;;;12.55;11.13;;;16.60;99.90;;;;;;5118051;28;20052;-71
2022/09/12 01:06:57;;;;;;;12.00;10.70;;;16.60;99.90;;;;;;5118794;28;20036;-71
2022/09/12 01:09:24;;;;;;;12.63;11.05;;;16.60;99.90;;;;;;5118957;28;20039;-71
2022/09/12 01:11:51;;;;;;;15.13;11.85;;;16.60;99.90;;;;;;5100969;28;20044;-71
2022/09/12 01:14:18;;;;;;;15.15;11.38;;;16.60;99.90;;;;;;5118766;28;20043;-71
2022/09/12 01:16:45;;;;;;;17.02;12.32;;;16.60;99.90;;;;;;5117991;28;20043;-71
2022/09/12 01:19:32;;;;;;;13.13;11.70;;;16.60;99.90;;;;;;5118674;28;20047;-71
2022/09/12 01:22:19;;;;;;;14.43;12.20;;;16.60;99.90;;;;;;5117404;28;20047;-71
2022/09/12 01:25:11;;;;;;;13.60;12.20;;;16.60;99.90;;;;;;5117428;28;20126;-71
2022/09/12 01:28:05;;;;;;;14.05;12.52;;;16.50;99.90;;;;;;5118657;28;20043;-71
2022/09/12 01:30:54;;;;;;;15.55;11.52;;;16.50;99.90;;;;;;5118408;28;20035;-71
2022/09/12 01:33:44;;;;;;;14.85;12.15;;;16.50;99.90;;;;;;5100446;28;20040;-71
2022/09/12 01:36:33;;;;;;;15.98;13.45;;;16.40;99.90;;;;;;5118659;28;20043;-71
2022/09/12 01:39:03;;;;;;;15.32;12.98;;;16.40;99.90;;;;;;5117426;28;20462;-71
2022/09/12 01:42:03;;;;;;;16.67;13.98;;;16.50;99.90;;;;;;5116787;28;20059;-71
2022/09/12 01:44:31;;;;;;;14.50;12.50;;;16.50;99.90;;;;;;5117058;28;20046;-71
2022/09/12 01:47:20;;;;;;;16.92;13.18;;;16.50;99.90;;;;;;5117246;28;20325;-71
2022/09/12 01:49:57;;;;;;;15.60;13.95;;;16.40;99.90;;;;;;5117880;28;20032;-71
2022/09/12 01:52:45;;;;;;;16.15;14.15;;;16.40;99.90;;;;;;5116793;28;20444;-71
2022/09/12 01:55:19;;;;;;;17.10;13.07;;;16.30;99.90;;;;;;5118196;28;20157;-71
2022/09/12 01:57:59;;;;;;;16.73;13.60;;;16.30;99.90;;;;;;5117828;28;20444;-71
2022/09/12 02:00:25;;;;;;;15.23;13.18;;;16.30;99.90;;;;;;5118133;28;20036;-71
2022/09/12 02:03:14;;;;;;;15.95;13.73;;;16.30;99.90;;;;;;5116325;28;20039;-71
2022/09/12 02:05:47;;;;;;;14.77;13.18;;;16.30;99.90;;;;;;5116676;28;20051;-71
2022/09/12 02:08:19;;;;;;;15.85;13.13;;;16.20;99.90;;;;;;5116630;28;20114;-71
2022/09/12 02:10:54;;;;;;;15.93;13.15;;;16.20;99.90;;;;;;5116486;28;20340;-71
2022/09/12 02:13:39;;;;;;;18.60;13.20;;;16.20;99.90;;;;;;5117896;28;20032;-71
2022/09/12 02:16:09;;;;;;;15.85;13.45;;;16.20;99.90;;;;;;5116457;28;20040;-71
2022/09/12 02:18:43;;;;;;;16.80;13.98;;;16.10;99.90;;;;;;5116298;28;20043;-72
2022/09/12 02:21:09;;;;;;;16.35;13.43;;;16.10;99.90;;;;;;5116586;28;20439;-71
2022/09/12 02:23:39;;;;;;;16.25;13.73;;;16.10;99.90;;;;;;5116144;28;20043;-71
2022/09/12 02:26:24;;;;;;;21.48;15.60;;;16.10;99.90;;;;;;5117403;28;20157;-71
2022/09/12 02:28:50;;;;;;;17.17;13.77;;;16.10;99.90;;;;;;5116492;28;20038;-71
2022/09/12 02:31:36;;;;;;;16.13;14.10;;;16.00;99.90;;;;;;5116865;28;20324;-71
2022/09/12 02:34:07;;;;;;;16.42;14.13;;;16.00;99.90;;;;;;5117584;28;20044;-71
2022/09/12 02:36:59;;;;;;;15.93;13.32;;;16.00;99.90;;;;;;5117255;28;20132;-71
2022/09/12 02:39:25;;;;;;;18.80;15.30;;;16.00;99.90;;;;;;5117306;28;20050;-71
2022/09/12 02:41:53;;;;;;;18.17;14.65;;;16.00;99.90;;;;;;5115800;28;20043;-71
2022/09/12 02:44:19;;;;;;;19.40;15.65;;;16.00;99.90;;;;;;5117174;28;20050;-71
2022/09/12 02:46:52;;;;;;;22.65;19.60;;;16.10;99.90;;;;;;5117160;28;20119;-71
2022/09/12 02:49:18;;;;;;;20.42;17.02;;;16.20;99.90;;;;;;5116266;28;20036;-71
2022/09/12 02:51:45;;;;;;;17.35;14.50;;;16.30;99.90;;;;;;5116214;28;20032;-71
2022/09/12 02:54:12;;;;;;;17.52;13.93;;;16.30;99.90;;;;;;5116913;28;20043;-71
2022/09/12 02:56:42;;;;;;;17.63;14.30;;;16.10;99.90;;;;;;5116861;28;20039;-71
2022/09/12 02:59:10;;;;;;;16.08;14.38;;;16.10;99.90;;;;;;5116079;28;20043;-71
2022/09/12 03:02:13;;;;;;;17.83;13.30;;;16.00;99.90;;;;;;5116638;28;20039;-71
2022/09/12 03:05:08;;;;;;;22.88;14.63;;;15.90;99.90;;;;;;5115550;28;20054;-71
2022/09/12 03:07:51;;;;;;;16.85;13.85;;;15.90;99.90;;;;;;5098448;28;20054;-71
2022/09/12 03:10:45;;;;;;;20.90;14.57;;;15.80;99.90;;;;;;5115848;28;20036;-71
2022/09/12 03:13:31;;;;;;;17.80;14.85;;;15.90;99.90;;;;;;5116860;28;20440;-71
2022/09/12 03:16:16;;;;;;;15.55;13.30;;;15.80;99.90;;;;;;5116868;28;20413;-72
2022/09/12 03:19:03;;;;;;;18.45;14.63;;;15.80;99.90;;;;;;5118581;28;20130;-71
2022/09/12 03:21:41;;;;;;;23.25;17.38;;;15.80;99.90;;;;;;5119800;28;20438;-71
2022/09/12 03:24:33;;;;;;;19.25;15.30;;;15.90;99.90;;;;;;5120787;28;20075;-71
2022/09/12 03:27:10;;;;;;;18.00;14.40;;;15.90;99.90;;;;;;5120835;28;20039;-71
2022/09/12 03:29:38;;;;;;;17.15;13.65;;;15.90;99.90;;;;;;5119724;28;20110;-71
2022/09/12 03:32:04;;;;;;;17.98;13.68;;;15.90;99.90;;;;;;5120154;28;20417;-71
2022/09/12 03:34:30;;;;;;;17.23;13.68;;;15.90;99.90;;;;;;5119724;28;20043;-71
2022/09/12 03:36:56;;;;;;;19.48;14.80;;;15.90;99.90;;;;;;5119644;28;20385;-71
2022/09/12 03:39:26;;;;;;;15.88;13.65;;;15.90;99.90;;;;;;5120658;28;20039;-71
2022/09/12 03:41:53;;;;;;;18.15;14.73;;;15.90;99.90;;;;;;5119412;28;20047;-71
2022/09/12 03:44:19;;;;;;;18.70;15.05;;;15.80;99.90;;;;;;5120408;27;20317;-71
2022/09/12 03:46:45;;;;;;;17.80;14.77;;;15.90;99.90;;;;;;5120417;28;20092;-71
2022/09/12 03:49:11;;;;;;;19.17;14.30;;;15.90;99.90;;;;;;5119603;28;20325;-71
2022/09/12 03:51:38;;;;;;;19.65;14.20;;;15.90;99.90;;;;;;5120588;28;20042;-71
2022/09/12 03:54:04;;;;;;;18.08;13.38;;;15.90;99.90;;;;;;5102351;28;20047;-71
2022/09/12 03:56:30;;;;;;;20.33;15.32;;;15.90;99.90;;;;;;5153574;27;20040;-70
2022/09/12 03:58:56;;;;;;;19.95;14.60;;;15.80;99.90;;;;;;5119989;28;20134;-71
2022/09/12 04:01:22;;;;;;;20.98;16.08;;;15.80;99.90;;;;;;5119070;28;20039;-71
2022/09/12 04:03:50;;;;;;;20.42;16.23;;;15.80;99.90;;;;;;5120136;28;20040;-71
2022/09/12 04:06:19;;;;;;;18.58;14.55;;;15.90;99.90;;;;;;5118951;28;20050;-71
2022/09/12 04:08:51;;;;;;;18.85;14.98;;;15.80;99.90;;;;;;5118921;28;20078;-71
2022/09/12 04:11:18;;;;;;;22.67;16.13;;;15.80;99.90;;;;;;5101793;28;20036;-73
2022/09/12 04:13:45;;;;;;;21.77;16.25;;;15.80;99.90;;;;;;5118898;28;20042;-71
2022/09/12 04:16:13;;;;;;;21.10;16.38;;;15.80;99.90;;;;;;5118840;28;20520;-71
2022/09/12 04:18:39;;;;;;;21.42;15.90;;;15.70;99.90;;;;;;5120080;28;20050;-71
2022/09/12 04:21:07;;;;;;;22.92;16.77;;;15.70;99.90;;;;;;5119800;28;20048;-71
2022/09/12 04:23:33;;;;;;;22.13;15.90;;;15.70;99.90;;;;;;5119828;28;20078;-71
2022/09/12 04:26:00;;;;;;;23.98;17.85;;;15.70;99.90;;;;;;5119552;28;20361;-71
2022/09/12 04:28:31;;;;;;;20.50;15.98;;;15.70;99.90;;;;;;5119595;28;20424;-70
2022/09/12 04:31:06;;;;;;;21.98;17.42;;;15.70;99.90;;;;;;5118253;28;20067;-71
2022/09/12 04:33:32;;;;;;;24.58;17.67;;;15.80;99.90;;;;;;5119482;28;20114;-71
2022/09/12 04:36:06;;;;;;;24.40;17.45;;;15.80;99.90;;;;;;5119679;28;20334;-71
2022/09/12 04:38:34;;;;;;;24.45;17.67;;;15.70;99.90;;;;;;5119327;28;20039;-71
2022/09/12 04:41:00;;;;;;;22.70;16.48;;;15.80;99.90;;;;;;5119216;28;20104;-71
2022/09/12 04:43:26;;;;;;;24.38;16.52;;;15.80;99.90;;;;;;5118457;28;20336;-71
2022/09/12 04:45:52;;;;;;;24.15;17.58;;;15.80;99.90;;;;;;5119353;28;20428;-71
2022/09/12 04:48:17;;;;;;;24.45;18.08;;;15.80;99.90;;;;;;5119328;28;20078;-71
2022/09/12 04:50:43;;;;;;;23.10;17.10;;;15.70;99.90;;;;;;5119125;28;20043;-71
2022/09/12 04:53:09;;;;;;;25.70;17.48;;;15.80;99.90;;;;;;5119028;28;20032;-71
2022/09/12 04:55:34;;;;;;;23.17;17.48;;;15.80;99.90;;;;;;5135048;27;20035;-71
2022/09/12 04:58:01;;;;;;;23.10;17.48;;;15.80;99.90;;;;;;5113315;27;20048;-71
2022/09/12 05:00:27;;;;;;;25.08;17.58;;;15.80;99.90;;;;;;5116041;28;20040;-72
2022/09/12 05:02:53;;;;;;;23.85;18.70;;;15.90;99.90;;;;;;5118653;28;20116;-71
2022/09/12 05:05:19;;;;;;;26.05;18.75;;;15.90;99.90;;;;;;5119135;28;20378;-70
2022/09/12 05:07:44;;;;;;;26.38;19.35;;;16.00;99.90;;;;;;5117806;28;20306;-71
2022/09/12 05:10:11;;;;;;;28.50;19.98;;;16.10;99.90;;;;;;5119081;28;20055;-71
2022/09/12 05:12:37;;;;;;;29.75;21.27;;;16.10;99.90;;;;;;5101175;28;20055;-71
2022/09/12 05:15:03;;;;;;;25.58;18.65;;;16.20;99.90;;;;;;5152119;27;20348;-71
2022/09/12 05:17:29;;;;;;;24.52;18.63;;;16.30;99.90;;;;;;5118685;28;20118;-71
2022/09/12 05:19:54;;;;;;;31.83;21.30;;;16.30;99.90;;;;;;5117713;28;20127;-71
2022/09/12 05:22:20;;;;;;;26.30;18.83;;;16.30;99.90;;;;;;5117540;28;20043;-71
2022/09/12 05:24:47;;;;;;;27.27;19.38;;;16.40;99.90;;;;;;5118657;28;20040;-71
2022/09/12 05:27:13;;;;;;;30.67;21.88;;;16.50;99.90;;;;;;5117313;28;20082;-71
2022/09/12 05:29:39;;;;;;;31.08;22.08;;;16.60;99.90;;;;;;5117593;28;20067;-71
2022/09/12 05:32:04;;;;;;;29.38;20.95;;;16.60;99.90;;;;;;5118099;28;20400;-71
2022/09/12 05:34:30;;;;;;;26.83;20.48;;;16.60;99.90;;;;;;5118265;28;20092;-71
2022/09/12 05:36:56;;;;;;;30.67;20.98;;;16.70;99.90;;;;;;5118242;28;20062;-71
2022/09/12 05:39:22;;;;;;;29.58;21.20;;;16.70;99.90;;;;;;5118300;28;20127;-71
2022/09/12 05:41:48;;;;;;;29.27;21.60;;;16.80;99.90;;;;;;5116978;28;20067;-71
2022/09/12 05:44:14;;;;;;;28.58;21.48;;;16.90;99.90;;;;;;5117038;28;20093;-72
2022/09/12 05:46:43;;;;;;;32.63;22.98;;;16.90;99.90;;;;;;5117014;28;20052;-72
2022/09/12 05:49:11;;;;;;;34.55;23.20;;;16.90;99.90;;;;;;5116987;28;20417;-71
2022/09/12 05:51:40;;;;;;;32.30;21.55;;;17.00;99.90;;;;;;5116792;28;20114;-71
2022/09/12 05:54:08;;;;;;;33.55;22.75;;;17.00;99.90;;;;;;5118101;28;20086;-71
2022/09/12 05:56:38;;;;;;;31.70;23.40;;;17.00;99.90;;;;;;5117955;28;20130;-71
2022/09/12 05:59:18;;;;;;;30.13;22.75;;;17.00;99.90;;;;;;5117993;28;20039;-71
2022/09/12 06:01:44;;;;;;;35.50;23.42;;;17.00;99.90;;;;;;5116555;28;20419;-71
2022/09/12 06:04:10;;;;;;;38.35;23.98;;;17.00;99.90;;;;;;5117796;28;20116;-71
2022/09/12 06:06:43;;;;;;;34.65;23.48;;;17.10;99.90;;;;;;5099699;28;20044;-71
2022/09/12 06:09:10;;;;;;;38.58;25.40;;;17.10;99.90;;;;;;5116758;28;20376;-71
2022/09/12 06:11:39;;;;;;;34.72;24.17;;;17.10;99.90;;;;;;5134304;27;20088;-71
2022/09/12 06:14:06;;;;;;;34.45;24.35;;;17.10;99.90;;;;;;5116452;28;20048;-71
2022/09/12 06:16:33;;;;;;;33.85;22.85;;;17.10;99.90;;;;;;5117472;28;20058;-72
2022/09/12 06:19:01;;;;;;;34.97;24.65;;;17.10;99.90;;;;;;5117463;28;20062;-71
2022/09/12 06:21:27;;;;;;;34.88;23.33;;;17.20;99.90;;;;;;5117604;28;20040;-72
2022/09/12 06:23:59;;;;;;;35.63;23.48;;;17.20;99.90;;;;;;5116484;28;20071;-71
2022/09/12 06:26:26;;;;;;;38.00;25.63;;;17.20;99.90;;;;;;5116626;28;20031;-71
2022/09/12 06:28:54;;;;;;;34.53;23.38;;;17.30;99.90;;;;;;5117301;28;20409;-72
2022/09/12 06:31:25;;;;;;;45.55;28.08;;;17.20;99.90;;;;;;5116968;28;20043;-71
2022/09/12 06:33:53;;;;;;;41.92;27.23;;;17.30;99.90;;;;;;5116640;28;20054;-71
2022/09/12 06:36:24;;;;;;;40.70;26.75;;;17.40;99.90;;;;;;5117197;28;20048;-71
2022/09/12 06:39:15;;;;;;;41.95;27.67;;;17.50;99.90;;;;;;5116137;28;20069;-73
2022/09/12 06:41:41;;;;;;;49.58;30.20;;;17.40;99.90;;;;;;5104040;28;20091;-71
2022/09/12 06:44:06;;;;;;;42.10;27.33;;;17.50;99.90;;;;;;5117129;28;20055;-71
2022/09/12 06:46:32;;;;;;;46.50;29.08;;;17.50;99.90;;;;;;5116009;28;20036;-72
2022/09/12 06:48:59;;;;;;;45.78;29.27;;;17.50;99.90;;;;;;5115893;28;20081;-71
2022/09/12 06:51:27;;;;;;;47.38;28.98;;;17.50;99.90;;;;;;5117113;28;20036;-71
2022/09/12 06:53:56;;;;;;;51.33;29.35;;;17.50;99.90;;;;;;5116345;28;20076;-71
2022/09/12 06:56:25;;;;;;;44.58;28.48;;;17.50;99.90;;;;;;5117106;28;20035;-73
2022/09/12 06:58:52;;;;;;;49.58;29.98;;;17.60;99.90;;;;;;5115958;28;20086;-71
2022/09/12 07:01:29;;;;;;;50.55;30.58;;;17.50;99.90;;;;;;5115668;28;20332;-71
2022/09/12 07:04:01;;;;;;;46.70;30.15;;;17.60;99.90;;;;;;5115749;28;20050;-71
2022/09/12 07:06:32;;;;;;;50.40;30.98;;;17.60;99.90;;;;;;5116713;28;20074;-71
2022/09/12 07:09:00;;;;;;;43.97;28.83;;;17.60;99.90;;;;;;5117154;28;20035;-71
2022/09/12 07:11:30;;;;;;;48.45;30.52;;;17.70;99.90;;;;;;5116762;28;20028;-71
2022/09/12 07:13:58;;;;;;;53.15;30.27;;;17.70;99.90;;;;;;5115954;28;20047;-71
2022/09/12 07:16:24;;;;;;;50.15;29.60;;;17.70;99.90;;;;;;5115839;28;20118;-72
2022/09/12 07:18:52;;;;;;;62.53;35.25;;;17.70;99.90;;;;;;5116648;28;20043;-71
2022/09/12 07:21:18;;;;;;;52.13;31.00;;;17.60;99.90;;;;;;5116635;28;20040;-71
2022/09/12 07:23:44;;;;;;;52.90;32.05;;;17.60;99.90;;;;;;5115582;28;20273;-71
2022/09/12 07:26:11;;;;;;;45.45;30.38;;;17.80;99.90;;;;;;5115879;28;20043;-71
2022/09/12 07:28:37;;;;;;;64.43;36.00;;;17.80;99.90;;;;;;5116722;28;20040;-71
2022/09/12 07:31:12;;;;;;;55.20;33.22;;;17.90;99.90;;;;;;5116128;28;20047;-72
2022/09/12 07:33:38;;;;;;;50.97;32.03;;;17.90;99.90;;;;;;5116761;28;20040;-73
2022/09/12 07:36:07;;;;;;;60.47;35.17;;;17.90;99.90;;;;;;5115441;28;20043;-71
2022/09/12 07:38:33;;;;;;;59.40;35.25;;;18.00;99.90;;;;;;5115572;28;20050;-72
2022/09/12 07:41:00;;;;;;;58.15;33.42;;;18.00;99.90;;;;;;5116287;28;20135;-70
2022/09/12 07:43:26;;;;;;;51.90;30.90;;;18.00;99.90;;;;;;5115617;28;20035;-68
2022/09/12 07:45:56;;;;;;;49.42;30.17;;;18.00;99.90;;;;;;5116469;28;20421;-68
2022/09/12 07:48:22;;;;;;;58.92;34.17;;;18.00;99.90;;;;;;5116297;28;20040;-72
2022/09/12 07:50:58;;;;;;;49.25;30.30;;;18.10;99.90;;;;;;5116764;28;20363;-68
2022/09/12 07:53:25;;;;;;;56.85;33.70;;;18.20;99.90;;;;;;5116681;28;20032;-68
2022/09/12 07:55:54;;;;;;;56.08;31.60;;;18.20;99.90;;;;;;5118467;28;20047;-70
2022/09/12 07:58:21;;;;;;;57.03;31.40;;;18.30;99.90;;;;;;5116364;28;20320;-70
2022/09/12 08:00:46;;;;;;;54.10;30.67;;;18.30;99.90;;;;;;5117764;28;20039;-70
2022/09/12 08:03:12;;;;;;;55.08;31.70;;;18.40;99.90;;;;;;5115895;28;20040;-70
2022/09/12 08:05:38;;;;;;;46.40;30.70;;;18.40;99.90;;;;;;5119264;28;20044;-70
2022/09/12 08:08:03;;;;;;;60.15;31.85;;;18.50;99.90;;;;;;5120100;28;20039;-69
2022/09/12 08:10:29;;;;;;;47.53;30.35;;;18.40;99.90;;;;;;5120100;28;20039;-69
2022/09/12 08:12:55;;;;;;;49.60;30.38;;;18.60;99.90;;;;;;5119965;28;20051;-70
2022/09/12 08:15:20;;;;;;;53.65;30.98;;;18.70;99.90;;;;;;5119826;28;20044;-71
2022/09/12 08:17:46;;;;;;;46.78;28.90;;;18.80;99.90;;;;;;5120056;28;20035;-70
2022/09/12 08:20:12;;;;;;;50.30;30.35;;;18.80;99.90;;;;;;5119745;28;20043;-70
2022/09/12 08:22:39;;;;;;;49.33;29.65;;;19.00;99.90;;;;;;5118824;28;20046;-70
2022/09/12 08:25:05;;;;;;;49.63;29.27;;;19.20;99.90;;;;;;5118529;28;20051;-70
2022/09/12 08:27:31;;;;;;;44.65;28.60;;;19.10;99.90;;;;;;5119691;28;20042;-66
2022/09/12 08:29:57;;;;;;;48.22;27.90;;;18.90;99.90;;;;;;5119528;28;20115;-67
2022/09/12 08:32:22;;;;;;;48.08;29.90;;;18.80;99.90;;;;;;5119099;28;20044;-71
2022/09/12 08:34:48;;;;;;;46.83;29.08;;;18.90;99.90;;;;;;5119543;28;20093;-70
2022/09/12 08:37:14;;;;;;;49.15;29.75;;;19.10;99.90;;;;;;5108553;27;20047;-71
2022/09/12 08:39:40;;;;;;;46.30;26.50;;;19.20;99.90;;;;;;5097063;28;20061;-70
2022/09/12 08:42:09;;;;;;;37.13;21.15;;;19.30;99.90;;;;;;5117033;28;20070;-88
2022/09/12 08:45:07;;;;;;;47.45;26.05;;;19.40;99.90;;;;;;5117355;28;20032;-88
2022/09/12 08:47:45;;;;;;;39.58;23.77;;;19.30;99.90;;;;;;5119097;28;20047;-92
2022/09/12 08:50:10;;;;;;;42.40;24.63;;;19.10;99.90;;;;;;5118842;28;20043;-89
2022/09/12 08:52:42;;;;;;;39.40;23.95;;;19.00;99.90;;;;;;5118715;28;20318;-90
2022/09/12 08:55:54;;;;;;;40.25;23.10;;;19.00;99.90;;;;;;5118867;28;20075;-88
2022/09/12 08:58:22;;;;;;;42.60;25.60;;;19.10;99.90;;;;;;5098242;28;20056;-89
2022/09/12 09:01:08;;;;;;;38.10;23.67;;;19.10;99.90;;;;;;5101737;28;20047;-90
2022/09/12 09:03:48;;;;;;;42.63;24.58;;;19.30;99.90;;;;;;5119360;28;20039;-90
2022/09/12 09:06:32;;;;;;;38.95;23.75;;;19.20;99.90;;;;;;5118064;28;20044;-72
2022/09/12 09:09:29;;;;;;;45.15;22.60;;;19.30;99.90;;;;;;5118846;28;20071;-84
2022/09/12 09:11:54;;;;;;;41.22;23.67;;;19.40;99.90;;;;;;5117759;28;20190;-85
2022/09/12 09:14:50;;;;;;;40.53;24.55;;;19.50;99.90;;;;;;5117746;28;20130;-85
2022/09/12 09:17:33;;;;;;;41.88;24.88;;;19.50;99.90;;;;;;5117281;28;20084;-84
2022/09/12 09:20:09;;;;;;;42.78;25.08;;;19.50;99.90;;;;;;5100927;28;20497;-84
2022/09/12 09:22:44;;;;;;;39.03;23.65;;;19.40;99.90;;;;;;5117767;28;20044;-86
2022/09/12 09:25:19;;;;;;;38.80;23.42;;;19.40;99.90;;;;;;5117867;28;20123;-84
2022/09/12 09:28:03;;;;;;;42.95;24.90;;;19.60;99.90;;;;;;5100612;28;20069;-83
2022/09/12 09:30:29;;;;;;;40.15;23.90;;;19.60;99.90;;;;;;5101133;28;20425;-91
2022/09/12 09:32:58;;;;;;;43.05;25.35;;;19.80;99.90;;;;;;5100558;28;20054;-90
2022/09/12 09:35:43;;;;;;;44.25;25.55;;;19.70;99.90;;;;;;5100754;28;20035;-76
2022/09/12 09:38:49;;;;;;;41.65;24.42;;;19.80;99.90;;;;;;5117601;28;20067;-75
2022/09/12 09:41:36;;;;;;;39.50;23.40;;;20.00;99.90;;;;;;5035515;28;20049;-74
2022/09/12 09:44:02;;;;;;;44.10;24.50;;;20.10;99.90;;;;;;5115597;28;20052;-75
2022/09/12 09:46:28;;;;;;;40.97;24.27;;;20.10;99.90;;;;;;5118394;28;20043;-75
2022/09/12 09:48:58;;;;;;;44.65;23.90;;;20.10;99.90;;;;;;5118095;28;20127;-75
2022/09/12 09:51:32;;;;;;;42.15;23.45;;;20.20;99.90;;;;;;5116995;28;20047;-74
2022/09/12 09:54:16;;;;;;;39.65;23.73;;;20.40;99.90;;;;;;5118155;28;20057;-75
2022/09/12 09:56:42;;;;;;;42.63;26.15;;;20.70;99.90;;;;;;5117195;28;20399;-75
2022/09/12 09:59:30;;;;;;;43.92;26.52;;;21.00;99.90;;;;;;5118166;28;20043;-75
2022/09/12 10:02:18;;;;;;;42.40;25.42;;;21.00;99.90;;;;;;5117503;28;20043;-75
2022/09/12 10:04:54;;;;;;;43.90;24.42;;;21.20;99.90;;;;;;5118009;28;20434;-75
2022/09/12 10:07:20;;;;;;;44.83;26.13;;;21.60;99.90;;;;;;5116751;28;20035;-75
2022/09/12 10:10:17;;;;;;;47.60;27.52;;;21.80;99.90;;;;;;5117883;28;20047;-77
2022/09/12 10:12:43;;;;;;;47.72;26.77;;;22.00;99.90;;;;;;5113796;28;20050;-75
2022/09/12 10:15:25;;;;;;;51.03;27.42;;;22.00;99.90;;;;;;5117665;28;20043;-75
2022/09/12 10:17:51;;;;;;;48.97;27.85;;;22.40;99.90;;;;;;5097163;28;20437;-76
2022/09/12 10:20:40;;;;;;;46.63;26.15;;;22.70;99.90;;;;;;5095979;28;20036;-75
2022/09/12 10:23:18;;;;;;;42.25;25.92;;;22.70;99.90;;;;;;5109227;28;20054;-75
2022/09/12 10:25:52;;;;;;;44.60;25.05;;;22.70;99.90;;;;;;5116244;28;20052;-76
2022/09/12 10:28:30;;;;;;;41.25;24.95;;;22.80;99.90;;;;;;5098465;28;20136;-75
2022/09/12 10:30:56;;;;;;;40.72;23.60;;;23.00;99.90;;;;;;5117445;28;20049;-75
2022/09/12 10:33:25;;;;;;;44.28;24.85;;;23.20;99.90;;;;;;5115882;28;20071;-75
2022/09/12 10:35:52;;;;;;;40.42;23.45;;;23.50;99.90;;;;;;5115066;28;20039;-75
2022/09/12 10:38:31;;;;;;;37.42;22.35;;;23.50;99.90;;;;;;5117549;28;20375;-84
2022/09/12 10:41:08;;;;;;;36.08;22.77;;;23.30;99.90;;;;;;5099246;28;20062;-84
2022/09/12 10:43:41;;;;;;;40.83;21.40;;;23.40;99.90;;;;;;5116251;28;20055;-84
2022/09/12 10:46:23;;;;;;;31.33;19.98;;;23.50;99.90;;;;;;5099360;28;20432;-85
2022/09/12 10:48:51;;;;;;;33.53;18.92;;;23.80;99.90;;;;;;5112714;28;20413;-82
2022/09/12 10:51:23;;;;;;;36.33;20.63;;;23.80;99.90;;;;;;5079038;28;20063;-77
2022/09/12 10:54:16;;;;;;;37.28;19.95;;;23.70;99.90;;;;;;5129769;27;20081;-86
2022/09/12 10:57:30;;;;;;;30.90;17.33;;;23.50;99.90;;;;;;5077402;28;20047;-91
2022/09/12 11:00:02;;;;;;;30.73;16.40;;;23.80;99.90;;;;;;5061167;28;20093;-86
2022/09/12 11:02:49;;;;;;;30.10;18.10;;;23.70;99.90;;;;;;5094887;28;20044;-73
2022/09/12 11:05:36;;;;;;;30.25;18.33;;;24.00;99.90;;;;;;5117318;28;20036;-73
2022/09/12 11:08:25;;;;;;;35.50;20.23;;;24.30;99.90;;;;;;5117263;28;20039;-73
2022/09/12 11:11:16;;;;;;;33.50;19.73;;;24.70;99.90;;;;;;5116714;28;20044;-70
2022/09/12 11:14:09;;;;;;;32.05;18.55;;;25.00;99.80;;;;;;5096008;28;20044;-69
2022/09/12 11:17:00;;;;;;;30.85;16.90;;;25.20;99.60;;;;;;5096334;28;20040;-70
2022/09/12 11:19:51;;;;;;;27.30;16.77;;;25.60;99.50;;;;;;5096488;28;20097;-70
2022/09/12 11:22:40;;;;;;;22.85;13.30;;;25.60;99.10;;;;;;5096705;28;20043;-69
2022/09/12 11:25:22;;;;;;;26.95;14.57;;;25.80;99.40;;;;;;5096101;28;20045;-70
2022/09/12 11:28:12;;;;;;;24.02;13.13;;;26.00;99.20;;;;;;5110762;28;20039;-70
2022/09/12 11:31:09;;;;;;;24.20;13.23;;;26.20;99.30;;;;;;5116967;28;20039;-70
2022/09/12 11:33:47;;;;;;;23.58;14.90;;;26.70;98.80;;;;;;5115795;28;20067;-70
2022/09/12 11:36:34;;;;;;;24.88;14.20;;;26.60;98.80;;;;;;5114999;28;20374;-70
2022/09/12 11:39:13;;;;;;;19.17;12.25;;;26.60;98.70;;;;;;5117031;28;20039;-70
2022/09/12 11:41:50;;;;;;;21.33;13.70;;;27.10;99.10;;;;;;5120428;28;20053;-70
2022/09/12 11:44:25;;;;;;;21.92;12.85;;;27.10;98.20;;;;;;5120442;28;20043;-70
2022/09/12 11:46:50;;;;;;;42.92;18.48;;;27.10;98.10;;;;;;5119970;28;20043;-70
2022/09/12 11:49:24;;;;;;;28.05;14.10;;;26.80;98.50;;;;;;5120184;28;20039;-70
2022/09/12 11:52:15;;;;;;;15.43;9.75;;;27.00;98.50;;;;;;5120363;28;20053;-70
2022/09/12 11:55:04;;;;;;;14.45;8.52;;;27.10;97.60;;;;;;5120624;28;20043;-70
2022/09/12 11:57:32;;;;;;;14.30;9.15;;;27.40;98.10;;;;;;5100003;28;20121;-71
2022/09/12 12:00:10;;;;;;;13.40;9.07;;;27.40;98.00;;;;;;5110436;28;20035;-87
2022/09/12 12:02:54;;;;;;;13.52;8.15;;;27.10;98.10;;;;;;5082063;28;20040;-88
2022/09/12 12:05:24;;;;;;;14.90;8.80;;;26.80;98.30;;;;;;5116520;28;20318;-89
2022/09/12 12:07:56;;;;;;;17.08;10.05;;;26.90;98.10;;;;;;5120846;27;20085;-89
2022/09/12 12:10:35;;;;;;;16.05;10.13;;;26.70;98.40;;;;;;5091939;28;20413;-89
2022/09/12 12:13:06;;;;;;;16.88;11.13;;;26.70;98.40;;;;;;5102582;28;20044;-89
2022/09/12 12:15:35;;;;;;;23.73;11.07;;;26.70;97.70;;;;;;5102664;28;20409;-88
2022/09/12 12:18:05;;;;;;;17.25;10.80;;;26.60;98.40;;;;;;5102286;28;20063;-88
2022/09/12 12:20:30;;;;;;;17.45;9.55;;;26.70;98.20;;;;;;5102820;28;20039;-89
2022/09/12 12:22:56;;;;;;;13.40;8.13;;;26.20;98.40;;;;;;5082367;28;20071;-89
2022/09/12 12:25:37;;;;;;;9.38;7.30;;;25.90;97.90;;;;;;5081825;28;20421;-89
2022/09/12 12:28:05;;;;;;;13.23;7.85;;;25.90;98.20;;;;;;5085936;28;20074;-89
2022/09/12 12:30:30;;;;;;;15.85;9.80;;;26.00;98.30;;;;;;5093367;28;20043;-89
2022/09/12 12:33:00;;;;;;;11.48;8.15;;;25.90;98.30;;;;;;5115125;28;20510;-89
2022/09/12 12:35:36;;;;;;;12.23;7.97;;;26.00;98.00;;;;;;5099234;28;20044;-88
2022/09/12 12:38:04;;;;;;;13.88;9.40;;;25.90;98.30;;;;;;5081842;28;20510;-88
2022/09/12 12:40:31;;;;;;;12.52;8.45;;;25.80;98.40;;;;;;5081296;28;20031;-90
2022/09/12 12:43:04;;;;;;;13.55;7.50;;;25.80;98.20;;;;;;5115846;27;20052;-89
2022/09/12 12:45:36;;;;;;;13.95;8.90;;;26.00;98.60;;;;;;5098350;28;20102;-88
2022/09/12 12:48:13;;;;;;;12.40;9.18;;;26.10;98.30;;;;;;5098243;28;20036;-87
2022/09/12 12:50:39;;;;;;;12.65;8.07;;;26.40;98.30;;;;;;5107136;28;20038;-88
2022/09/12 12:53:20;;;;;;;11.32;7.78;;;26.40;98.30;;;;;;5113410;28;20043;-69
2022/09/12 12:55:49;;;;;;;8.73;5.85;;;26.70;98.40;;;;;;5109814;28;20036;-69
2022/09/12 12:58:37;;;;;;;8.98;5.32;;;27.00;97.70;;;;;;5098516;28;20043;-69